createdAt,value
2018-07-06T00:00:58.668Z,52.46
2018-07-06T00:03:24.660Z,52.57
2018-07-06T00:05:50.664Z,52.81
2018-07-06T00:08:16.651Z,52.39
2018-07-06T00:10:42.718Z,53.07
2018-07-06T00:13:08.687Z,53.21
2018-07-06T00:15:35.452Z,53.23
2018-07-06T00:18:01.434Z,52.41
2018-07-06T00:20:27.448Z,53.13
2018-07-06T00:22:53.483Z,52.15
2018-07-06T00:25:19.471Z,52.52
2018-07-06T00:27:45.448Z,53.23
2018-07-06T00:30:11.406Z,52.57
2018-07-06T00:32:37.356Z,52.44
2018-07-06T00:35:03.333Z,52.81
2018-07-06T00:37:29.313Z,52.65
2018-07-06T00:39:55.281Z,53.19
2018-07-06T00:42:21.249Z,52.36
2018-07-06T00:44:47.244Z,53.34
2018-07-06T00:47:13.219Z,52.88
2018-07-06T00:49:39.193Z,53.03
2018-07-06T00:52:05.168Z,52.42
2018-07-06T00:54:31.120Z,52.63
2018-07-06T00:56:57.097Z,53.05
2018-07-06T00:59:23.039Z,52.58
2018-07-06T01:01:49.158Z,53.39
2018-07-06T01:04:15.063Z,52.64
2018-07-06T01:06:41.048Z,52.32
2018-07-06T01:09:07.189Z,53.08
2018-07-06T01:11:33.150Z,53.15
2018-07-06T01:13:59.146Z,53.19
2018-07-06T01:16:25.101Z,52.38
2018-07-06T01:18:51.072Z,53.47
2018-07-06T01:21:17.117Z,52.79
2018-07-06T01:23:43.112Z,52.69
2018-07-06T01:26:09.068Z,53.45
2018-07-06T01:28:35.042Z,52.57
2018-07-06T01:31:01.033Z,52.34
2018-07-06T01:33:26.989Z,53.14
2018-07-06T01:35:52.964Z,53.62
2018-07-06T01:38:18.948Z,53.22
2018-07-06T01:40:44.943Z,53.54
2018-07-06T01:43:10.935Z,52.45
2018-07-06T01:45:36.906Z,52.80
2018-07-06T01:48:02.903Z,52.92
2018-07-06T01:50:29.208Z,52.56
2018-07-06T01:52:55.179Z,53.46
2018-07-06T01:55:21.229Z,53.21
2018-07-06T01:57:47.217Z,53.63
2018-07-06T02:00:13.178Z,53.94
2018-07-06T02:02:39.241Z,52.59
2018-07-06T02:05:05.224Z,52.60
2018-07-06T02:07:31.201Z,53.02
2018-07-06T02:09:57.540Z,52.89
2018-07-06T02:12:23.547Z,53.08
2018-07-06T02:14:49.478Z,53.21
2018-07-06T02:17:15.441Z,53.86
2018-07-06T02:19:41.385Z,53.25
2018-07-06T02:22:07.464Z,52.39
2018-07-06T02:24:33.448Z,52.44
2018-07-06T02:26:59.422Z,53.13
2018-07-06T02:29:25.436Z,53.49
2018-07-06T02:31:51.496Z,53.04
2018-07-06T02:34:17.477Z,53.57
2018-07-06T02:36:43.446Z,53.26
2018-07-06T02:39:09.405Z,52.75
2018-07-06T02:41:35.387Z,53.48
2018-07-06T02:44:01.382Z,53.56
2018-07-06T02:46:27.365Z,52.89
2018-07-06T02:48:53.315Z,53.55
2018-07-06T02:51:19.294Z,52.80
2018-07-06T02:53:45.280Z,52.98
2018-07-06T02:56:11.246Z,53.47
2018-07-06T02:58:37.220Z,53.31
2018-07-06T03:01:03.178Z,52.67
2018-07-06T03:03:29.190Z,52.80
2018-07-06T03:05:55.158Z,53.43
2018-07-06T03:08:21.161Z,52.54
2018-07-06T03:10:47.113Z,53.35
2018-07-06T03:13:13.168Z,53.32
2018-07-06T03:15:39.138Z,53.50
2018-07-06T03:18:06.133Z,53.70
2018-07-06T03:20:32.098Z,53.05
2018-07-06T03:22:58.084Z,53.53
2018-07-06T03:25:24.066Z,53.56
2018-07-06T03:27:50.040Z,53.29
2018-07-06T03:30:16.006Z,52.57
2018-07-06T03:32:41.962Z,52.72
2018-07-06T03:35:07.926Z,53.12
2018-07-06T03:37:34.824Z,52.89
2018-07-06T03:40:00.792Z,52.76
2018-07-06T03:42:27.071Z,52.80
2018-07-06T03:44:53.058Z,52.93
2018-07-06T03:47:19.030Z,53.29
2018-07-06T03:49:45.053Z,52.85
2018-07-06T03:52:11.025Z,53.39
2018-07-06T03:54:37.006Z,53.54
2018-07-06T03:57:02.961Z,52.73
2018-07-06T03:59:28.919Z,53.19
2018-07-06T04:01:54.914Z,52.77
2018-07-06T04:04:20.902Z,53.37
2018-07-06T04:06:46.869Z,52.78
2018-07-06T04:09:12.930Z,52.01
2018-07-06T04:11:38.898Z,52.93
2018-07-06T04:14:04.876Z,53.08
2018-07-06T04:16:30.841Z,52.76
2018-07-06T04:18:56.848Z,53.06
2018-07-06T04:21:22.816Z,53.18
2018-07-06T04:23:48.808Z,53.79
2018-07-06T04:26:14.786Z,53.55
2018-07-06T04:28:40.777Z,53.51
2018-07-06T04:31:06.732Z,53.39
2018-07-06T04:33:32.705Z,53.81
2018-07-06T04:35:58.679Z,53.40
2018-07-06T04:38:24.648Z,53.09
2018-07-06T04:40:50.629Z,52.60
2018-07-06T04:43:16.589Z,53.01
2018-07-06T04:45:42.588Z,53.50
2018-07-06T04:48:08.587Z,52.66
2018-07-06T04:50:34.637Z,52.88
2018-07-06T04:53:00.718Z,52.43
2018-07-06T04:55:26.692Z,53.16
2018-07-06T04:57:52.672Z,53.50
2018-07-06T05:00:18.634Z,53.16
2018-07-06T05:02:44.609Z,52.88
2018-07-06T05:05:10.586Z,53.24
2018-07-06T05:07:36.604Z,52.84
2018-07-06T05:10:02.595Z,53.39
2018-07-06T05:12:28.557Z,53.82
2018-07-06T05:14:54.548Z,53.49
2018-07-06T05:17:20.868Z,53.16
2018-07-06T05:19:46.835Z,53.60
2018-07-06T05:22:12.821Z,53.95
2018-07-06T05:24:38.793Z,53.55
2018-07-06T05:27:04.756Z,53.44
2018-07-06T05:29:30.774Z,53.01
2018-07-06T05:31:56.749Z,53.20
2018-07-06T05:34:22.723Z,53.85
2018-07-06T05:36:48.706Z,53.60
2018-07-06T05:39:14.682Z,53.88
2018-07-06T05:41:40.676Z,53.03
2018-07-06T05:44:06.771Z,54.21
2018-07-06T05:46:33.839Z,54.05
2018-07-06T05:49:00.937Z,53.76
2018-07-06T05:51:27.018Z,53.78
2018-07-06T05:53:53.055Z,54.16
2018-07-06T05:56:18.969Z,55.34
2018-07-06T05:58:44.923Z,54.43
2018-07-06T06:01:10.918Z,54.31
2018-07-06T06:03:36.888Z,54.33
2018-07-06T06:06:02.851Z,54.24
2018-07-06T06:08:28.816Z,54.17
2018-07-06T06:10:54.858Z,54.19
2018-07-06T06:13:20.857Z,54.03
2018-07-06T06:15:46.822Z,53.63
2018-07-06T06:18:12.804Z,53.04
2018-07-06T06:20:38.758Z,53.42
2018-07-06T06:23:04.736Z,53.47
2018-07-06T06:25:30.749Z,54.74
2018-07-06T06:27:56.725Z,54.58
2018-07-06T06:30:23.279Z,53.49
2018-07-06T06:32:49.262Z,53.29
2018-07-06T06:35:15.242Z,53.71
2018-07-06T06:37:41.249Z,54.57
2018-07-06T06:40:07.240Z,54.63
2018-07-06T06:42:33.324Z,55.00
2018-07-06T06:44:59.363Z,54.07
2018-07-06T06:47:25.330Z,54.26
2018-07-06T06:49:51.335Z,53.61
2018-07-06T06:52:17.308Z,54.31
2018-07-06T06:54:43.269Z,53.51
2018-07-06T06:57:09.265Z,54.18
2018-07-06T06:59:35.225Z,54.13
2018-07-06T07:02:01.177Z,54.20
2018-07-06T07:04:27.132Z,53.72
2018-07-06T07:06:53.101Z,54.06
2018-07-06T07:09:19.073Z,53.49
2018-07-06T07:11:45.047Z,54.03
2018-07-06T07:14:11.084Z,53.90
2018-07-06T07:16:36.993Z,53.52
2018-07-06T07:19:02.964Z,54.13
2018-07-06T07:21:28.954Z,54.25
2018-07-06T07:23:54.925Z,54.60
2018-07-06T07:26:20.883Z,53.68
2018-07-06T07:28:46.865Z,54.50
2018-07-06T07:31:12.839Z,54.07
2018-07-06T07:33:39.546Z,53.51
2018-07-06T07:36:05.557Z,54.24
2018-07-06T07:38:31.543Z,53.55
2018-07-06T07:40:57.513Z,53.69
2018-07-06T07:43:23.651Z,54.01
2018-07-06T07:45:49.640Z,53.45
2018-07-06T07:48:15.643Z,53.68
2018-07-06T07:50:41.596Z,53.63
2018-07-06T07:53:07.570Z,53.77
2018-07-06T07:55:33.549Z,53.92
2018-07-06T07:57:59.526Z,52.92
2018-07-06T08:00:25.627Z,53.54
2018-07-06T08:02:51.488Z,53.94
2018-07-06T08:05:17.453Z,53.06
2018-07-06T08:07:43.449Z,52.93
2018-07-06T08:10:10.084Z,53.82
2018-07-06T08:12:36.054Z,52.85
2018-07-06T08:15:02.019Z,53.05
2018-07-06T08:17:27.996Z,53.89
2018-07-06T08:19:53.950Z,53.18
2018-07-06T08:22:19.910Z,53.16
2018-07-06T08:24:46.124Z,52.80
2018-07-06T08:27:12.098Z,54.01
2018-07-06T08:29:38.085Z,53.08
2018-07-06T08:32:04.054Z,53.96
2018-07-06T08:34:30.045Z,53.68
2018-07-06T08:36:56.049Z,53.61
2018-07-06T08:39:22.042Z,53.11
2018-07-06T08:41:48.027Z,54.23
2018-07-06T08:44:14.016Z,53.41
2018-07-06T08:46:39.968Z,53.16
2018-07-06T08:49:05.932Z,53.79
2018-07-06T08:51:31.878Z,53.04
2018-07-06T08:53:57.836Z,54.08
2018-07-06T08:56:23.823Z,53.14
2018-07-06T08:58:49.799Z,53.13
2018-07-06T09:01:15.809Z,53.90
2018-07-06T09:03:41.775Z,53.02
2018-07-06T09:06:07.849Z,54.22
2018-07-06T09:08:33.807Z,53.18
2018-07-06T09:10:59.778Z,53.99
2018-07-06T09:13:25.776Z,53.76
2018-07-06T09:15:51.756Z,53.57
2018-07-06T09:18:17.725Z,53.50
2018-07-06T09:20:43.708Z,53.30
2018-07-06T09:23:09.680Z,53.37
2018-07-06T09:25:35.752Z,53.87
2018-07-06T09:28:01.627Z,54.03
2018-07-06T09:30:27.640Z,53.51
2018-07-06T09:32:53.611Z,53.54
2018-07-06T09:35:19.591Z,53.17
2018-07-06T09:37:45.562Z,52.78
2018-07-06T09:40:11.528Z,53.08
2018-07-06T09:42:37.492Z,53.31
2018-07-06T09:45:03.523Z,53.54
2018-07-06T09:47:29.446Z,52.93
2018-07-06T09:49:55.423Z,53.30
2018-07-06T09:52:21.403Z,53.63
2018-07-06T09:54:47.391Z,53.08
2018-07-06T09:57:13.355Z,52.71
2018-07-06T09:59:39.361Z,53.50
2018-07-06T10:02:05.335Z,52.77
2018-07-06T10:04:31.385Z,54.08
2018-07-06T10:06:57.352Z,54.28
2018-07-06T10:09:23.321Z,53.55
2018-07-06T10:11:49.304Z,53.34
2018-07-06T10:14:15.440Z,52.91
2018-07-06T10:16:41.421Z,53.64
2018-07-06T10:19:07.411Z,52.12
2018-07-06T10:21:33.384Z,52.65
2018-07-06T10:23:59.361Z,52.77
2018-07-06T10:26:25.307Z,52.96
2018-07-06T10:28:51.302Z,52.60
2018-07-06T10:31:17.281Z,53.15
2018-07-06T10:33:43.364Z,52.80
2018-07-06T10:36:09.248Z,53.21
2018-07-06T10:38:35.213Z,52.92
2018-07-06T10:41:01.176Z,52.44
2018-07-06T10:43:27.149Z,53.05
2018-07-06T10:45:53.122Z,53.29
2018-07-06T10:48:19.089Z,52.86
2018-07-06T10:50:45.070Z,53.17
2018-07-06T10:53:11.052Z,53.49
2018-07-06T10:55:37.040Z,53.53
2018-07-06T10:58:03.032Z,53.04
2018-07-06T11:00:29.010Z,53.63
2018-07-06T11:02:55.026Z,53.37
2018-07-06T11:05:21.015Z,52.19
2018-07-06T11:07:47.075Z,52.11
2018-07-06T11:10:13.041Z,53.80
2018-07-06T11:12:39.041Z,53.16
2018-07-06T11:15:05.039Z,52.97
2018-07-06T11:17:31.037Z,53.33
2018-07-06T11:19:57.027Z,52.84
2018-07-06T11:22:22.984Z,54.30
2018-07-06T11:24:48.987Z,54.15
2018-07-06T11:27:14.979Z,53.77
2018-07-06T11:29:41.025Z,54.36
2018-07-06T11:32:07.038Z,54.34
2018-07-06T11:34:33.037Z,54.63
2018-07-06T11:36:58.997Z,54.22
2018-07-06T11:39:25.402Z,53.80
2018-07-06T11:41:51.389Z,52.50
2018-07-06T11:44:17.339Z,53.95
2018-07-06T11:46:43.329Z,54.71
2018-07-06T11:49:09.314Z,53.73
2018-07-06T11:51:35.272Z,53.97
2018-07-06T11:54:01.280Z,53.45
2018-07-06T11:56:27.247Z,53.84
2018-07-06T11:58:53.211Z,52.64
2018-07-06T12:01:19.180Z,53.81
2018-07-06T12:03:45.134Z,52.72
2018-07-06T12:06:11.112Z,52.88
2018-07-06T12:08:37.082Z,53.72
2018-07-06T12:11:03.058Z,53.67
2018-07-06T12:13:29.011Z,53.55
2018-07-06T12:15:54.976Z,53.80
2018-07-06T12:18:20.945Z,52.70
2018-07-06T12:20:46.945Z,53.25
2018-07-06T12:23:12.921Z,51.87
2018-07-06T12:25:38.893Z,53.38
2018-07-06T12:28:04.882Z,51.79
2018-07-06T12:30:30.839Z,53.30
2018-07-06T12:32:56.864Z,53.69
2018-07-06T12:35:23.870Z,51.96
2018-07-06T12:37:49.831Z,52.36
2018-07-06T12:40:15.808Z,53.01
2018-07-06T12:42:41.815Z,52.27
2018-07-06T12:45:07.813Z,52.34
2018-07-06T12:47:33.777Z,51.91
2018-07-06T12:49:59.737Z,53.54
2018-07-06T12:52:25.731Z,53.10
2018-07-06T12:54:51.686Z,52.26
2018-07-06T12:57:17.693Z,52.49
2018-07-06T12:59:43.666Z,53.76
2018-07-06T13:02:09.669Z,52.08
2018-07-06T13:04:35.636Z,53.59
2018-07-06T13:07:01.594Z,53.63
2018-07-06T13:09:27.560Z,52.59
2018-07-06T13:11:53.539Z,53.47
2018-07-06T13:14:19.601Z,52.84
2018-07-06T13:16:45.558Z,52.95
2018-07-06T13:19:11.521Z,53.98
2018-07-06T13:21:37.480Z,54.15
2018-07-06T13:24:03.466Z,53.60
2018-07-06T13:26:29.417Z,53.25
2018-07-06T13:28:55.388Z,54.58
2018-07-06T13:31:21.352Z,53.69
2018-07-06T13:33:47.361Z,54.66
2018-07-06T13:36:13.319Z,54.71
2018-07-06T13:38:39.278Z,54.05
2018-07-06T13:41:05.238Z,54.68
2018-07-06T13:43:31.238Z,54.77
2018-07-06T13:45:57.217Z,53.72
2018-07-06T13:48:23.185Z,53.70
2018-07-06T13:50:49.166Z,53.83
2018-07-06T13:53:15.122Z,53.76
2018-07-06T13:55:41.069Z,54.61
2018-07-06T13:58:07.052Z,54.71
2018-07-06T14:00:33.039Z,54.05
2018-07-06T14:02:59.023Z,54.33
2018-07-06T14:05:26.025Z,53.80
2018-07-06T14:07:51.998Z,54.20
2018-07-06T14:10:18.001Z,54.68
2018-07-06T14:12:43.966Z,53.89
2018-07-06T14:15:09.946Z,54.47
2018-07-06T14:17:35.954Z,54.34
2018-07-06T14:20:02.011Z,54.89
2018-07-06T14:22:27.996Z,54.00
2018-07-06T14:24:54.021Z,54.20
2018-07-06T14:27:20.066Z,54.66
2018-07-06T14:29:46.017Z,53.53
2018-07-06T14:32:12.014Z,53.02
2018-07-06T14:34:37.969Z,53.83
2018-07-06T14:37:03.929Z,52.94
2018-07-06T14:39:29.900Z,54.14
2018-07-06T14:41:55.871Z,53.73
2018-07-06T14:44:21.866Z,54.64
2018-07-06T14:46:47.828Z,53.73
2018-07-06T14:49:13.815Z,54.25
2018-07-06T14:51:39.781Z,54.19
2018-07-06T14:54:05.801Z,54.84
2018-07-06T14:56:33.882Z,54.72
2018-07-06T14:58:59.878Z,54.73
2018-07-06T15:01:25.838Z,54.65
2018-07-06T15:03:51.844Z,54.34
2018-07-06T15:06:17.811Z,54.37
2018-07-06T15:08:43.788Z,54.08
2018-07-06T15:11:09.826Z,54.14
2018-07-06T15:13:35.861Z,54.80
2018-07-06T15:16:01.873Z,54.38
2018-07-06T15:18:28.122Z,53.74
2018-07-06T15:20:54.081Z,53.61
2018-07-06T15:23:20.041Z,53.24
2018-07-06T15:25:46.053Z,53.86
2018-07-06T15:28:11.997Z,53.85
2018-07-06T15:30:37.975Z,54.24
2018-07-06T15:33:04.052Z,53.67
2018-07-06T15:35:30.031Z,54.26
2018-07-06T15:37:56.042Z,53.49
2018-07-06T15:40:22.062Z,54.59
2018-07-06T15:42:48.021Z,54.30
2018-07-06T15:45:14.061Z,54.19
2018-07-06T15:47:40.038Z,55.06
2018-07-06T15:50:06.129Z,54.87
2018-07-06T15:52:32.105Z,55.84
2018-07-06T15:54:58.072Z,54.79
2018-07-06T15:57:24.073Z,55.01
2018-07-06T15:59:50.099Z,54.32
2018-07-06T16:02:16.110Z,54.24
2018-07-06T16:04:42.124Z,53.92
2018-07-06T16:07:08.115Z,54.98
2018-07-06T16:09:34.104Z,53.71
2018-07-06T16:12:00.124Z,54.17
2018-07-06T16:14:26.104Z,55.30
2018-07-06T16:16:52.072Z,54.51
2018-07-06T16:19:18.060Z,55.48
2018-07-06T16:21:44.061Z,54.49
2018-07-06T16:24:10.057Z,54.64
2018-07-06T16:26:36.058Z,54.76
2018-07-06T16:29:02.032Z,54.49
2018-07-06T16:31:28.060Z,54.35
2018-07-06T16:33:54.038Z,54.95
2018-07-06T16:36:20.057Z,54.92
2018-07-06T16:38:45.993Z,54.52
2018-07-06T16:41:11.985Z,54.38
2018-07-06T16:43:38.231Z,54.17
2018-07-06T16:46:04.195Z,54.91
2018-07-06T16:48:30.197Z,54.24
2018-07-06T16:50:56.179Z,54.51
2018-07-06T16:53:22.171Z,54.67
2018-07-06T16:55:48.134Z,54.48
2018-07-06T16:58:14.159Z,54.41
2018-07-06T17:00:40.129Z,54.50
2018-07-06T17:03:06.104Z,55.55
2018-07-06T17:05:32.072Z,54.58
2018-07-06T17:07:58.069Z,55.45
2018-07-06T17:10:24.064Z,54.65
2018-07-06T17:12:50.014Z,54.29
2018-07-06T17:15:16.039Z,55.53
2018-07-06T17:17:41.998Z,54.58
2018-07-06T17:20:08.049Z,55.17
2018-07-06T17:22:34.021Z,54.75
2018-07-06T17:24:59.994Z,54.84
2018-07-06T17:27:25.990Z,53.94
2018-07-06T17:29:52.001Z,54.70
2018-07-06T17:32:17.981Z,54.71
2018-07-06T17:34:43.957Z,54.45
2018-07-06T17:37:09.955Z,54.82
2018-07-06T17:39:35.916Z,54.53
2018-07-06T17:42:01.910Z,54.54
2018-07-06T17:44:27.895Z,55.17
2018-07-06T17:46:53.900Z,54.59
2018-07-06T17:49:19.880Z,54.41
2018-07-06T17:51:45.879Z,55.34
2018-07-06T17:54:11.876Z,54.90
2018-07-06T17:56:37.926Z,54.82
2018-07-06T17:59:03.888Z,54.78
2018-07-06T18:01:29.890Z,54.50
2018-07-06T18:03:55.887Z,55.08
2018-07-06T18:06:21.877Z,54.66
2018-07-06T18:08:47.846Z,54.63
2018-07-06T18:11:13.880Z,54.41
2018-07-06T18:13:39.877Z,54.66
2018-07-06T18:16:05.880Z,54.26
2018-07-06T18:18:31.866Z,54.85
2018-07-06T18:20:57.828Z,54.28
2018-07-06T18:23:23.896Z,54.15
2018-07-06T18:25:49.802Z,55.16
2018-07-06T18:28:15.806Z,54.97
2018-07-06T18:30:41.859Z,54.48
2018-07-06T18:33:07.862Z,54.43
2018-07-06T18:35:33.821Z,54.22
2018-07-06T18:37:59.850Z,54.35
2018-07-06T18:40:25.826Z,54.96
2018-07-06T18:42:51.804Z,54.95
2018-07-06T18:45:17.773Z,54.86
2018-07-06T18:47:43.758Z,53.67
2018-07-06T18:50:09.764Z,54.20
2018-07-06T18:52:35.738Z,54.15
2018-07-06T18:55:01.712Z,53.31
2018-07-06T18:57:27.876Z,53.61
2018-07-06T18:59:53.886Z,53.84
2018-07-06T19:02:19.855Z,52.97
2018-07-06T19:04:45.869Z,54.24
2018-07-06T19:07:12.905Z,54.14
2018-07-06T19:09:38.960Z,53.84
2018-07-06T19:12:04.952Z,53.98
2018-07-06T19:14:31.095Z,53.59
2018-07-06T19:16:57.079Z,53.15
2018-07-06T19:19:23.041Z,54.83
2018-07-06T19:21:49.037Z,53.01
2018-07-06T19:24:15.046Z,53.43
2018-07-06T19:26:41.023Z,54.41
2018-07-06T19:29:07.004Z,53.84
2018-07-06T19:31:32.970Z,54.16
2018-07-06T19:33:58.996Z,53.53
2018-07-06T19:36:24.972Z,53.76
2018-07-06T19:38:51.002Z,53.56
2018-07-06T19:41:16.993Z,53.66
2018-07-06T19:43:43.039Z,54.00
2018-07-06T19:46:09.036Z,54.44
2018-07-06T19:48:35.050Z,54.21
2018-07-06T19:51:00.993Z,54.20
2018-07-06T19:53:26.967Z,53.58
2018-07-06T19:55:52.956Z,54.03
2018-07-06T19:58:18.938Z,54.04
2018-07-06T20:00:44.898Z,54.01
2018-07-06T20:03:10.884Z,53.51
2018-07-06T20:05:36.845Z,54.84
2018-07-06T20:08:02.887Z,54.17
2018-07-06T20:10:28.815Z,54.14
2018-07-06T20:12:54.804Z,55.03
2018-07-06T20:15:20.791Z,54.84
2018-07-06T20:17:46.756Z,53.84
2018-07-06T20:20:12.735Z,54.19
2018-07-06T20:22:38.740Z,54.28
2018-07-06T20:25:04.701Z,54.96
2018-07-06T20:27:30.692Z,54.89
2018-07-06T20:29:56.657Z,54.27
2018-07-06T20:32:22.653Z,53.98
2018-07-06T20:34:48.656Z,53.45
2018-07-06T20:37:14.653Z,53.73
2018-07-06T20:39:40.628Z,53.41
2018-07-06T20:42:06.621Z,53.99
2018-07-06T20:44:32.774Z,54.47
2018-07-06T20:46:58.758Z,54.21
2018-07-06T20:49:24.719Z,53.56
2018-07-06T20:51:50.734Z,53.67
2018-07-06T20:54:16.743Z,53.48
2018-07-06T20:56:42.780Z,54.17
2018-07-06T20:59:08.807Z,54.72
2018-07-06T21:01:34.761Z,55.25
2018-07-06T21:04:00.786Z,54.89
2018-07-06T21:06:26.792Z,54.37
2018-07-06T21:08:52.812Z,54.51
2018-07-06T21:11:18.860Z,53.71
2018-07-06T21:13:44.827Z,53.29
2018-07-06T21:16:10.878Z,53.61
2018-07-06T21:18:37.809Z,54.11
2018-07-06T21:21:03.785Z,53.16
2018-07-06T21:23:29.774Z,53.79
2018-07-06T21:25:55.752Z,54.01
2018-07-06T21:28:21.830Z,53.82
2018-07-06T21:30:47.773Z,54.12
2018-07-06T21:33:14.775Z,53.73
2018-07-06T21:35:40.769Z,53.46
2018-07-06T21:38:06.753Z,53.73
2018-07-06T21:40:32.735Z,52.65
2018-07-06T21:42:58.726Z,53.18
2018-07-06T21:45:24.705Z,53.84
2018-07-06T21:47:50.695Z,54.19
2018-07-06T21:50:16.680Z,54.52
2018-07-06T21:52:42.651Z,53.33
2018-07-06T21:55:08.633Z,52.64
2018-07-06T21:57:35.694Z,53.01
2018-07-06T22:00:01.707Z,53.61
2018-07-06T22:02:27.765Z,53.94
2018-07-06T22:04:53.799Z,52.43
2018-07-06T22:07:19.772Z,51.83
2018-07-06T22:09:45.797Z,52.54
2018-07-06T22:12:11.795Z,51.95
2018-07-06T22:14:37.777Z,51.95
2018-07-06T22:17:03.812Z,52.14
2018-07-06T22:19:29.833Z,52.13
2018-07-06T22:21:55.940Z,51.60
2018-07-06T22:24:21.915Z,50.94
2018-07-06T22:26:47.890Z,50.70
2018-07-06T22:29:13.894Z,50.46
2018-07-06T22:31:39.896Z,51.24
2018-07-06T22:34:06.030Z,50.19
2018-07-06T22:36:31.989Z,50.93
2018-07-06T22:38:58.181Z,50.93
2018-07-06T22:41:24.201Z,50.19
2018-07-06T22:43:50.151Z,51.32
2018-07-06T22:46:16.124Z,51.48
2018-07-06T22:48:42.073Z,51.83
2018-07-06T22:51:08.032Z,51.70
2018-07-06T22:53:34.000Z,51.50
2018-07-06T22:56:00.003Z,51.84
2018-07-06T22:58:26.026Z,51.53
2018-07-06T23:00:51.928Z,51.63
2018-07-06T23:03:17.881Z,52.57
2018-07-06T23:05:43.844Z,51.24
2018-07-06T23:08:09.903Z,51.64
2018-07-06T23:10:35.892Z,51.82
2018-07-06T23:13:01.897Z,51.24
2018-07-06T23:15:27.852Z,51.81
2018-07-06T23:17:53.861Z,51.92
2018-07-06T23:20:19.848Z,51.66
2018-07-06T23:22:45.832Z,51.41
2018-07-06T23:25:11.843Z,51.29
2018-07-06T23:27:37.851Z,51.65
2018-07-06T23:30:03.832Z,50.87
2018-07-06T23:32:29.835Z,51.93
2018-07-06T23:34:55.816Z,50.94
2018-07-06T23:37:21.809Z,51.26
2018-07-06T23:39:47.809Z,51.66
2018-07-06T23:42:13.770Z,50.98
2018-07-06T23:44:39.764Z,50.99
2018-07-06T23:47:05.724Z,51.43
2018-07-06T23:49:31.797Z,51.81
2018-07-06T23:51:57.774Z,51.52
2018-07-06T23:54:23.735Z,51.86
2018-07-06T23:56:49.919Z,50.62
2018-07-06T23:59:15.944Z,52.08
